Time;durP1;ratioP1;P1;durP2;ratioP2;P2;SDS_P1;SDS_P2;PMS_P1;PMS_P2;Temp;Humidity;BMP_temperature;BMP_pressure;BME280_temperature;BME280_humidity;BME280_pressure;Samples;Min_cycle;Max_cycle;Signal;HPM_P1;HPM_P2
2022/08/27 00:01:59;;;;;;;33.03;24.00;;;;;;;;;;5032461;28;20049;-70
2022/08/27 00:04:25;;;;;;;36.10;24.58;;;;;;;;;;5031244;28;20496;-70
2022/08/27 00:06:52;;;;;;;34.25;25.38;;;;;;;;;;5032428;28;20045;-69
2022/08/27 00:09:21;;;;;;;40.63;27.75;;;;;;;;;;5031974;28;20099;-70
2022/08/27 00:11:53;;;;;;;45.30;30.08;;;;;;;;;;5032204;28;20107;-69
2022/08/27 00:14:19;;;;;;;38.60;30.15;;;;;;;;;;5032327;28;20061;-69
2022/08/27 00:16:46;;;;;;;47.75;32.97;;;;;;;;;;5022722;28;20050;-69
2022/08/27 00:19:13;;;;;;;48.22;30.90;;;;;;;;;;5012339;28;20424;-69
2022/08/27 00:21:39;;;;;;;46.53;31.52;;;;;;;;;;5012384;28;20065;-69
2022/08/27 00:24:06;;;;;;;44.80;31.60;;;;;;;;;;5012314;28;20054;-69
2022/08/27 00:26:33;;;;;;;39.35;30.45;;;;;;;;;;5020087;28;20041;-69
2022/08/27 00:29:00;;;;;;;43.80;31.63;;;;;;;;;;5032092;28;20053;-69
2022/08/27 00:31:27;;;;;;;47.53;32.20;;;;;;;;;;5032207;28;20058;-68
2022/08/27 00:33:54;;;;;;;38.70;28.88;;;;;;;;;;5032107;28;20053;-69
2022/08/27 00:36:21;;;;;;;44.97;32.42;;;;;;;;;;5032077;28;20057;-69
2022/08/27 00:38:48;;;;;;;42.53;30.80;;;;;;;;;;5031857;28;20420;-69
2022/08/27 00:41:19;;;;;;;39.22;29.20;;;;;;;;;;5032142;28;20045;-69
2022/08/27 00:43:53;;;;;;;43.00;30.73;;;;;;;;;;5032137;28;20488;-70
2022/08/27 00:46:28;;;;;;;45.22;30.85;;;;;;;;;;5025604;28;20038;-70
2022/08/27 00:48:57;;;;;;;49.30;30.27;;;;;;;;;;5010560;28;20053;-69
2022/08/27 00:51:26;;;;;;;44.25;31.73;;;;;;;;;;5011192;28;20054;-69
2022/08/27 00:53:53;;;;;;;43.80;30.77;;;;;;;;;;5010929;28;20052;-70
2022/08/27 00:56:22;;;;;;;37.40;30.42;;;;;;;;;;4996187;28;20053;-69
2022/08/27 00:58:51;;;;;;;38.20;29.33;;;;;;;;;;5010714;28;20054;-70
2022/08/27 01:01:21;;;;;;;45.80;31.98;;;;;;;;;;5011966;28;20501;-69
2022/08/27 01:03:51;;;;;;;38.15;28.27;;;;;;;;;;5012423;28;20054;-69
2022/08/27 01:06:18;;;;;;;37.78;28.40;;;;;;;;;;5011976;28;20053;-69
2022/08/27 01:08:47;;;;;;;34.50;28.52;;;;;;;;;;4994623;28;20089;-70
2022/08/27 01:11:14;;;;;;;39.03;29.58;;;;;;;;;;4994965;28;20424;-69
2022/08/27 01:13:40;;;;;;;38.05;29.40;;;;;;;;;;5027286;28;20069;-69
2022/08/27 01:16:29;;;;;;;41.92;28.85;;;;;;;;;;5016270;28;20076;-69
2022/08/27 01:18:57;;;;;;;36.05;28.65;;;;;;;;;;5030272;28;20056;-69
2022/08/27 01:21:40;;;;;;;40.67;30.27;;;;;;;;;;5014476;28;20050;-70
2022/08/27 01:24:27;;;;;;;43.67;30.58;;;;;;;;;;5016851;28;20060;-69
2022/08/27 01:26:53;;;;;;;42.05;31.58;;;;;;;;;;5015770;28;20420;-69
2022/08/27 01:29:20;;;;;;;39.85;31.20;;;;;;;;;;5014005;28;20049;-69
2022/08/27 01:31:47;;;;;;;39.67;32.25;;;;;;;;;;5015600;28;20053;-69
2022/08/27 01:34:14;;;;;;;41.10;31.50;;;;;;;;;;5015340;28;20136;-70
2022/08/27 01:36:40;;;;;;;42.47;31.52;;;;;;;;;;5015368;28;20045;-69
2022/08/27 01:39:07;;;;;;;38.25;31.58;;;;;;;;;;5015361;28;20050;-69
2022/08/27 01:41:34;;;;;;;45.42;35.47;;;;;;;;;;5015499;28;20050;-69
2022/08/27 01:44:03;;;;;;;45.45;34.28;;;;;;;;;;5015222;28;20050;-69
2022/08/27 01:46:29;;;;;;;46.00;35.05;;;;;;;;;;5017847;28;20060;-69
2022/08/27 01:48:56;;;;;;;41.25;33.25;;;;;;;;;;5034694;28;20057;-70
2022/08/27 01:51:23;;;;;;;47.65;36.72;;;;;;;;;;5034952;28;20057;-69
2022/08/27 01:53:49;;;;;;;47.00;35.75;;;;;;;;;;5034988;28;20065;-69
2022/08/27 01:56:17;;;;;;;52.38;38.53;;;;;;;;;;5034410;28;20088;-69
2022/08/27 01:58:43;;;;;;;47.50;36.10;;;;;;;;;;5014954;28;20519;-69
2022/08/27 02:01:11;;;;;;;51.00;37.33;;;;;;;;;;5014845;28;20053;-69
2022/08/27 02:03:38;;;;;;;50.90;36.78;;;;;;;;;;4997652;28;20410;-69
2022/08/27 02:06:07;;;;;;;46.05;36.03;;;;;;;;;;5014596;28;20049;-69
2022/08/27 02:08:34;;;;;;;48.33;36.28;;;;;;;;;;5033128;28;20420;-68
2022/08/27 02:11:00;;;;;;;48.17;35.78;;;;;;;;;;5034501;28;20488;-69
2022/08/27 02:13:27;;;;;;;49.65;36.33;;;;;;;;;;5034370;28;20053;-68
2022/08/27 02:15:54;;;;;;;55.53;38.08;;;;;;;;;;5034535;28;20057;-69
2022/08/27 02:18:21;;;;;;;46.42;36.05;;;;;;;;;;5017082;28;20054;-69
2022/08/27 02:20:48;;;;;;;49.85;36.17;;;;;;;;;;5014257;28;20057;-68
2022/08/27 02:23:15;;;;;;;51.25;36.75;;;;;;;;;;5014449;28;20050;-69
2022/08/27 02:25:41;;;;;;;44.22;34.88;;;;;;;;;;5014485;28;20056;-69
2022/08/27 02:28:08;;;;;;;50.35;35.20;;;;;;;;;;5029143;28;20068;-69
2022/08/27 02:30:36;;;;;;;42.55;33.08;;;;;;;;;;5034482;28;20468;-69
2022/08/27 02:33:04;;;;;;;41.78;33.83;;;;;;;;;;5034315;28;20078;-69
2022/08/27 02:35:37;;;;;;;43.40;33.50;;;;;;;;;;5033859;28;20080;-69
2022/08/27 02:38:04;;;;;;;37.70;31.33;;;;;;;;;;5020250;28;20081;-69
2022/08/27 02:40:31;;;;;;;45.28;34.55;;;;;;;;;;5014577;28;20436;-70
2022/08/27 02:42:58;;;;;;;42.13;32.03;;;;;;;;;;5016319;28;20062;-69
2022/08/27 02:45:24;;;;;;;46.30;33.70;;;;;;;;;;5038713;28;20089;-68
2022/08/27 02:47:52;;;;;;;42.95;32.80;;;;;;;;;;5039255;28;20054;-69
2022/08/27 02:50:19;;;;;;;46.60;34.00;;;;;;;;;;5039374;28;20106;-71
2022/08/27 02:52:52;;;;;;;43.63;32.58;;;;;;;;;;5039521;28;20064;-69
2022/08/27 02:55:19;;;;;;;42.90;32.85;;;;;;;;;;5039515;28;20034;-70
2022/08/27 02:57:46;;;;;;;41.83;32.92;;;;;;;;;;5039501;28;20030;-71
2022/08/27 03:00:16;;;;;;;40.92;31.88;;;;;;;;;;5039233;28;20034;-70
2022/08/27 03:02:43;;;;;;;45.13;33.38;;;;;;;;;;5039352;28;20089;-70
2022/08/27 03:05:11;;;;;;;44.58;33.85;;;;;;;;;;5039264;28;20038;-70
2022/08/27 03:07:39;;;;;;;42.78;34.10;;;;;;;;;;5039276;28;20042;-70
2022/08/27 03:10:06;;;;;;;52.47;34.10;;;;;;;;;;5038868;28;20038;-70
2022/08/27 03:12:35;;;;;;;46.40;35.70;;;;;;;;;;5039189;28;20040;-70
2022/08/27 03:15:06;;;;;;;49.05;35.75;;;;;;;;;;5039049;28;20081;-70
2022/08/27 03:20:18;;;;;;;49.28;35.42;;;;;;;;;;5058920;28;20041;-71
2022/08/27 03:22:45;;;;;;;52.25;36.50;;;;;;;;;;5058967;28;20033;-70
2022/08/27 03:25:12;;;;;;;51.95;36.17;;;;;;;;;;5058689;28;20029;-70
2022/08/27 03:27:39;;;;;;;50.08;35.83;;;;;;;;;;5049140;28;20095;-70
2022/08/27 03:30:09;;;;;;;48.72;35.20;;;;;;;;;;5038532;28;20057;-70
2022/08/27 03:32:36;;;;;;;45.20;34.10;;;;;;;;;;5036370;28;20046;-70
2022/08/27 03:35:03;;;;;;;44.45;34.10;;;;;;;;;;5019873;28;20065;-69
2022/08/27 03:37:30;;;;;;;48.70;35.20;;;;;;;;;;5015158;28;20057;-70
2022/08/27 03:39:57;;;;;;;42.50;32.38;;;;;;;;;;5013699;28;20053;-69
2022/08/27 03:42:23;;;;;;;45.33;32.78;;;;;;;;;;5014697;28;20050;-70
2022/08/27 03:44:50;;;;;;;44.80;32.30;;;;;;;;;;5014326;28;20432;-69
2022/08/27 03:47:17;;;;;;;41.72;31.55;;;;;;;;;;5013271;28;20053;-70
2022/08/27 03:49:44;;;;;;;38.65;29.08;;;;;;;;;;5013742;28;20427;-70
2022/08/27 03:52:11;;;;;;;39.45;29.60;;;;;;;;;;5013871;28;20058;-69
2022/08/27 03:54:37;;;;;;;36.17;28.25;;;;;;;;;;5013717;28;20054;-70
2022/08/27 03:57:04;;;;;;;41.10;28.40;;;;;;;;;;5013605;28;20054;-70
2022/08/27 03:59:32;;;;;;;38.47;28.30;;;;;;;;;;5013302;28;20053;-70
2022/08/27 04:01:59;;;;;;;35.72;26.20;;;;;;;;;;5016941;28;20090;-69
2022/08/27 04:04:26;;;;;;;37.38;27.85;;;;;;;;;;5013423;28;20077;-70
2022/08/27 04:06:54;;;;;;;38.60;28.15;;;;;;;;;;5013032;28;20061;-69
2022/08/27 04:09:24;;;;;;;43.25;29.15;;;;;;;;;;5012973;28;20053;-69
2022/08/27 04:11:50;;;;;;;40.38;28.80;;;;;;;;;;5013173;28;20394;-69
2022/08/27 04:14:18;;;;;;;41.80;29.48;;;;;;;;;;5012847;28;20050;-70
2022/08/27 04:16:53;;;;;;;42.45;30.70;;;;;;;;;;5015309;28;20500;-69
2022/08/27 04:19:21;;;;;;;49.08;32.83;;;;;;;;;;5034153;28;20644;-69
2022/08/27 04:21:53;;;;;;;;;;;;;;;;;;5033150;28;20128;-70
2022/08/27 04:24:19;;;;;;;51.38;34.03;;;;;;;;;;5016921;28;19929;-70
2022/08/27 04:26:46;;;;;;;44.90;31.08;;;;;;;;;;5012432;28;20448;-70
2022/08/27 04:29:13;;;;;;;52.83;34.22;;;;;;;;;;5012144;28;20046;-70
2022/08/27 04:31:40;;;;;;;57.03;34.42;;;;;;;;;;5012403;28;20084;-70
2022/08/27 04:34:07;;;;;;;48.80;34.20;;;;;;;;;;5012217;28;20096;-70
2022/08/27 04:36:33;;;;;;;50.25;34.55;;;;;;;;;;5012470;28;20068;-70
2022/08/27 04:39:00;;;;;;;50.30;35.67;;;;;;;;;;5026519;28;20053;-70
2022/08/27 04:41:27;;;;;;;52.95;35.67;;;;;;;;;;5050582;28;20045;-70
2022/08/27 04:43:56;;;;;;;53.42;34.65;;;;;;;;;;5046224;28;20053;-70
2022/08/27 04:46:28;;;;;;;54.38;35.90;;;;;;;;;;5034020;28;20046;-70
2022/08/27 04:48:56;;;;;;;49.40;34.13;;;;;;;;;;5030672;28;20474;-70
2022/08/27 04:51:23;;;;;;;52.42;35.70;;;;;;;;;;5031836;28;20550;-70
2022/08/27 04:53:51;;;;;;;53.95;36.83;;;;;;;;;;5031997;28;20046;-70
2022/08/27 04:56:21;;;;;;;59.35;37.88;;;;;;;;;;5031818;28;20045;-70
2022/08/27 04:58:48;;;;;;;61.10;36.95;;;;;;;;;;5034573;28;20061;-70
2022/08/27 05:01:22;;;;;;;53.88;36.95;;;;;;;;;;5035903;28;20080;-70
2022/08/27 05:03:49;;;;;;;58.03;37.67;;;;;;;;;;5036095;28;20058;-70
2022/08/27 05:06:16;;;;;;;60.75;37.03;;;;;;;;;;5035779;28;20045;-70
2022/08/27 05:08:43;;;;;;;57.53;37.70;;;;;;;;;;5018064;28;20045;-70
2022/08/27 05:11:14;;;;;;;62.25;38.97;;;;;;;;;;5035334;28;20049;-70
2022/08/27 05:13:42;;;;;;;60.08;40.80;;;;;;;;;;5034972;28;20044;-70
2022/08/27 05:16:14;;;;;;;55.72;38.10;;;;;;;;;;5055681;28;20049;-70
2022/08/27 05:18:41;;;;;;;61.08;40.55;;;;;;;;;;5055182;28;20106;-66
2022/08/27 05:21:22;;;;;;;56.17;38.65;;;;;;;;;;5055346;28;20140;-68
2022/08/27 05:23:49;;;;;;;53.97;38.10;;;;;;;;;;5048861;28;20054;-67
2022/08/27 05:26:16;;;;;;;50.20;36.63;;;;;;;;;;5026420;28;20045;-68
2022/08/27 05:28:43;;;;;;;49.53;35.55;;;;;;;;;;5024427;28;20046;-67
2022/08/27 05:31:11;;;;;;;47.95;36.80;;;;;;;;;;5024502;28;20508;-67
2022/08/27 05:33:39;;;;;;;48.25;36.75;;;;;;;;;;5032595;28;20050;-68
2022/08/27 05:36:07;;;;;;;47.90;34.08;;;;;;;;;;5030950;28;20042;-68
2022/08/27 05:38:35;;;;;;;41.90;33.80;;;;;;;;;;5015122;28;20056;-67
2022/08/27 05:41:10;;;;;;;45.10;35.20;;;;;;;;;;5013939;28;20054;-67
2022/08/27 05:43:39;;;;;;;49.08;36.38;;;;;;;;;;5013416;28;20065;-67
2022/08/27 05:46:07;;;;;;;44.33;33.53;;;;;;;;;;5013747;28;20049;-67
2022/08/27 05:48:35;;;;;;;44.72;33.72;;;;;;;;;;5014526;28;20057;-68
2022/08/27 05:51:13;;;;;;;50.90;35.72;;;;;;;;;;5012932;28;20065;-68
2022/08/27 05:53:54;;;;;;;50.05;36.55;;;;;;;;;;5016545;28;20050;-67
2022/08/27 05:56:22;;;;;;;53.20;37.00;;;;;;;;;;5013296;28;20417;-68
2022/08/27 06:01:36;;;;;;;45.05;35.03;;;;;;;;;;5013559;28;20060;-67
2022/08/27 06:04:03;;;;;;;53.75;36.55;;;;;;;;;;5012999;28;20058;-67
2022/08/27 06:06:34;;;;;;;47.05;35.00;;;;;;;;;;5012655;28;20053;-67
2022/08/27 06:09:00;;;;;;;45.55;34.20;;;;;;;;;;5014653;28;20053;-67
2022/08/27 06:11:27;;;;;;;44.17;33.17;;;;;;;;;;5031767;28;20057;-68
2022/08/27 06:13:54;;;;;;;48.00;35.78;;;;;;;;;;5025260;28;20488;-67
2022/08/27 06:16:21;;;;;;;44.03;33.08;;;;;;;;;;5032668;28;20055;-67
2022/08/27 06:18:48;;;;;;;45.85;34.58;;;;;;;;;;5019457;28;20054;-67
2022/08/27 06:21:17;;;;;;;43.58;34.60;;;;;;;;;;5024844;28;20049;-67
2022/08/27 06:23:49;;;;;;;45.97;34.22;;;;;;;;;;5013012;28;20050;-68
2022/08/27 06:26:17;;;;;;;47.58;34.50;;;;;;;;;;5011980;28;20049;-68
2022/08/27 06:28:44;;;;;;;40.53;33.40;;;;;;;;;;5016615;28;20060;-68
2022/08/27 06:31:16;;;;;;;43.08;33.75;;;;;;;;;;5012641;28;20061;-68
2022/08/27 06:33:45;;;;;;;41.25;33.17;;;;;;;;;;5012510;28;20053;-66
2022/08/27 06:36:15;;;;;;;41.95;34.60;;;;;;;;;;5027005;28;20049;-68
2022/08/27 06:38:44;;;;;;;45.28;32.20;;;;;;;;;;5031370;28;20060;-66
2022/08/27 06:41:16;;;;;;;43.05;33.53;;;;;;;;;;5015988;28;20061;-66
2022/08/27 06:43:49;;;;;;;38.20;32.30;;;;;;;;;;5012392;28;20420;-65
2022/08/27 06:46:17;;;;;;;40.22;31.42;;;;;;;;;;5011975;28;20505;-66
2022/08/27 06:48:45;;;;;;;34.60;29.67;;;;;;;;;;5011638;28;20398;-67
2022/08/27 06:51:18;;;;;;;41.25;31.55;;;;;;;;;;5011584;28;20062;-66
2022/08/27 06:53:46;;;;;;;41.65;31.85;;;;;;;;;;5011869;28;20428;-66
2022/08/27 06:56:14;;;;;;;37.67;29.92;;;;;;;;;;5016455;28;20064;-66
2022/08/27 06:58:41;;;;;;;43.00;31.67;;;;;;;;;;5007286;28;20054;-64
2022/08/27 07:01:29;;;;;;;37.13;30.63;;;;;;;;;;5015335;28;20107;-64
2022/08/27 07:03:57;;;;;;;33.13;29.42;;;;;;;;;;5013706;28;20054;-62
2022/08/27 07:06:25;;;;;;;35.80;29.98;;;;;;;;;;5017220;28;20421;-66
2022/08/27 07:08:51;;;;;;;37.33;30.42;;;;;;;;;;5017319;28;20056;-65
2022/08/27 07:11:19;;;;;;;39.42;29.52;;;;;;;;;;5015501;28;20393;-66
2022/08/27 07:13:47;;;;;;;33.60;28.73;;;;;;;;;;5020701;28;20481;-66
2022/08/27 07:16:16;;;;;;;32.95;27.88;;;;;;;;;;5010216;28;20075;-66
2022/08/27 07:18:44;;;;;;;33.42;25.90;;;;;;;;;;5017584;28;20115;-67
2022/08/27 07:21:11;;;;;;;31.13;24.35;;;;;;;;;;5016899;28;20072;-67
2022/08/27 07:23:38;;;;;;;30.55;25.63;;;;;;;;;;5020518;28;20057;-68
2022/08/27 07:26:10;;;;;;;28.95;24.65;;;;;;;;;;5017998;28;20052;-67
2022/08/27 07:28:37;;;;;;;33.15;26.58;;;;;;;;;;5020831;28;20049;-67
2022/08/27 07:31:07;;;;;;;30.80;25.98;;;;;;;;;;5019993;28;20045;-67
2022/08/27 07:33:35;;;;;;;33.35;26.00;;;;;;;;;;5019169;28;20049;-68
2022/08/27 07:36:03;;;;;;;30.60;25.20;;;;;;;;;;5012057;28;20052;-67
2022/08/27 07:38:30;;;;;;;31.48;24.88;;;;;;;;;;5018250;28;20432;-68
2022/08/27 07:40:57;;;;;;;30.13;24.48;;;;;;;;;;5019607;28;20049;-67
2022/08/27 07:46:09;;;;;;;30.58;24.83;;;;;;;;;;5020949;28;20049;-67
2022/08/27 07:48:35;;;;;;;29.60;25.35;;;;;;;;;;5023564;28;20088;-67
2022/08/27 07:51:04;;;;;;;30.30;24.63;;;;;;;;;;5011625;28;20096;-67
2022/08/27 07:53:33;;;;;;;28.27;22.95;;;;;;;;;;5013583;28;20127;-67
2022/08/27 07:56:04;;;;;;;26.17;23.30;;;;;;;;;;5019027;28;20054;-67
2022/08/27 07:58:31;;;;;;;30.75;24.23;;;;;;;;;;5011506;28;20050;-67
2022/08/27 08:00:58;;;;;;;28.65;25.02;;;;;;;;;;5016949;28;20049;-68
2022/08/27 08:03:25;;;;;;;32.55;26.55;;;;;;;;;;5017376;28;20575;-68
2022/08/27 08:05:53;;;;;;;35.10;27.58;;;;;;;;;;5019968;28;20054;-68
2022/08/27 08:08:20;;;;;;;32.13;27.17;;;;;;;;;;5017815;28;20049;-68
2022/08/27 08:10:47;;;;;;;32.90;27.02;;;;;;;;;;5018168;28;20053;-69
2022/08/27 08:13:15;;;;;;;34.67;29.40;;;;;;;;;;5019437;28;20041;-71
2022/08/27 08:15:43;;;;;;;45.65;33.90;;;;;;;;;;5018482;28;20053;-67
2022/08/27 08:18:10;;;;;;;39.33;32.35;;;;;;;;;;5016772;28;20045;-71
2022/08/27 08:20:37;;;;;;;39.17;32.58;;;;;;;;;;5019052;28;20049;-67
2022/08/27 08:23:22;;;;;;;47.03;36.08;;;;;;;;;;5018440;28;20053;-68
2022/08/27 08:25:49;;;;;;;49.95;35.35;;;;;;;;;;5007905;28;20361;-67
2022/08/27 08:28:16;;;;;;;50.30;37.55;;;;;;;;;;5014662;28;20045;-76
2022/08/27 08:31:06;;;;;;;55.03;38.53;;;;;;;;;;5035498;28;20530;-80
2022/08/27 08:33:38;;;;;;;57.53;40.45;;;;;;;;;;5028854;28;20167;-77
2022/08/27 08:36:16;;;;;;;56.90;39.97;;;;;;;;;;5003234;28;20064;-76
2022/08/27 08:38:44;;;;;;;52.45;38.97;;;;;;;;;;5018707;28;20137;-75
2022/08/27 08:41:26;;;;;;;49.78;38.80;;;;;;;;;;5020308;28;20504;-74
2022/08/27 08:43:58;;;;;;;61.65;41.03;;;;;;;;;;5018986;28;20045;-76
2022/08/27 08:47:02;;;;;;;50.15;37.22;;;;;;;;;;5001951;28;20475;-77
2022/08/27 08:49:59;;;;;;;52.13;38.30;;;;;;;;;;5018473;28;20506;-76
2022/08/27 08:53:29;;;;;;;48.13;34.90;;;;;;;;;;5016298;28;20078;-76
2022/08/27 08:56:00;;;;;;;48.28;33.53;;;;;;;;;;5016395;28;20057;-76
2022/08/27 08:59:09;;;;;;;51.38;36.42;;;;;;;;;;4994444;28;20108;-79
2022/08/27 09:01:37;;;;;;;45.20;34.22;;;;;;;;;;4943142;29;20052;-69
2022/08/27 09:04:06;;;;;;;42.33;33.42;;;;;;;;;;4940140;28;20047;-70
2022/08/27 09:06:53;;;;;;;41.38;31.35;;;;;;;;;;4977183;28;20050;-75
2022/08/27 09:09:47;;;;;;;41.65;32.15;;;;;;;;;;5020858;28;20046;-71
2022/08/27 09:12:23;;;;;;;42.22;32.95;;;;;;;;;;5008411;28;20280;-70
2022/08/27 09:14:58;;;;;;;42.42;33.63;;;;;;;;;;5020206;28;20049;-72
2022/08/27 09:17:26;;;;;;;45.83;34.47;;;;;;;;;;5020398;28;20042;-71
2022/08/27 09:19:54;;;;;;;38.85;33.03;;;;;;;;;;5018538;28;20050;-69
2022/08/27 09:22:42;;;;;;;41.45;33.20;;;;;;;;;;5020020;28;20053;-73
2022/08/27 09:25:20;;;;;;;44.25;32.97;;;;;;;;;;5017947;28;20049;-73
2022/08/27 09:27:47;;;;;;;41.50;32.33;;;;;;;;;;5020164;28;20045;-77
2022/08/27 09:30:20;;;;;;;42.40;33.17;;;;;;;;;;5000286;28;20053;-78
2022/08/27 09:32:55;;;;;;;39.25;30.58;;;;;;;;;;4987164;28;20416;-74
2022/08/27 09:35:25;;;;;;;40.42;32.10;;;;;;;;;;5016246;28;20060;-70
2022/08/27 09:37:54;;;;;;;40.70;31.92;;;;;;;;;;5019441;28;20046;-74
2022/08/27 09:40:38;;;;;;;40.05;33.17;;;;;;;;;;5019045;28;20064;-76
2022/08/27 09:43:14;;;;;;;41.35;32.05;;;;;;;;;;5018246;28;20042;-75
2022/08/27 09:45:53;;;;;;;39.67;32.60;;;;;;;;;;5023522;28;20045;-74
2022/08/27 09:48:23;;;;;;;40.05;31.10;;;;;;;;;;5008749;28;20042;-75
2022/08/27 09:51:17;;;;;;;39.78;31.80;;;;;;;;;;5022020;28;20068;-77
2022/08/27 09:54:03;;;;;;;39.38;31.15;;;;;;;;;;4993964;28;20062;-73
2022/08/27 09:56:37;;;;;;;40.80;30.75;;;;;;;;;;5008919;28;20057;-73
2022/08/27 09:59:09;;;;;;;35.28;30.67;;;;;;;;;;5023729;28;20046;-73
2022/08/27 10:01:49;;;;;;;39.03;30.33;;;;;;;;;;4993583;28;20496;-74
2022/08/27 10:04:22;;;;;;;35.72;29.90;;;;;;;;;;5023123;28;20049;-73
2022/08/27 10:06:50;;;;;;;33.00;27.73;;;;;;;;;;5021898;28;20049;-74
2022/08/27 10:09:25;;;;;;;34.28;29.08;;;;;;;;;;5022066;28;20088;-73
2022/08/27 10:12:06;;;;;;;36.17;29.52;;;;;;;;;;5023822;28;20504;-76
2022/08/27 10:14:50;;;;;;;37.10;28.90;;;;;;;;;;4992910;28;20073;-73
2022/08/27 10:17:26;;;;;;;35.25;29.35;;;;;;;;;;5020661;28;20042;-73
2022/08/27 10:20:17;;;;;;;36.83;29.20;;;;;;;;;;5010939;28;20456;-74
2022/08/27 10:23:05;;;;;;;33.83;27.80;;;;;;;;;;5021582;28;20046;-71
2022/08/27 10:25:38;;;;;;;33.72;27.77;;;;;;;;;;5026395;28;20052;-74
2022/08/27 10:28:37;;;;;;;39.28;30.75;;;;;;;;;;5021831;28;20038;-71
2022/08/27 10:31:18;;;;;;;39.60;30.90;;;;;;;;;;5019390;28;20050;-71
2022/08/27 10:37:39;;;;;;;37.55;30.35;;;;;;;;;;5023258;28;20046;-72
2022/08/27 10:40:24;;;;;;;40.35;31.17;;;;;;;;;;5022502;28;20045;-66
2022/08/27 10:43:28;;;;;;;38.72;32.35;;;;;;;;;;5022357;28;20049;-65
2022/08/27 10:46:03;;;;;;;39.22;32.83;;;;;;;;;;5023279;28;20041;-72
2022/08/27 10:48:36;;;;;;;36.95;31.85;;;;;;;;;;5021452;28;20045;-71
2022/08/27 10:51:07;;;;;;;36.05;30.23;;;;;;;;;;5007449;28;20061;-72
2022/08/27 10:54:06;;;;;;;39.60;29.80;;;;;;;;;;5019188;28;20049;-73
2022/08/27 10:56:59;;;;;;;34.47;29.80;;;;;;;;;;5017181;28;20064;-74
2022/08/27 11:00:09;;;;;;;38.70;29.38;;;;;;;;;;5017174;28;20480;-68
2022/08/27 11:03:05;;;;;;;34.75;29.00;;;;;;;;;;5018994;28;20056;-69
2022/08/27 11:05:50;;;;;;;36.38;29.77;;;;;;;;;;5020208;28;20054;-69
2022/08/27 11:08:28;;;;;;;40.15;31.92;;;;;;;;;;5013549;28;20060;-71
2022/08/27 11:10:57;;;;;;;40.08;29.55;;;;;;;;;;5022550;28;20049;-70
2022/08/27 11:13:41;;;;;;;45.75;32.00;;;;;;;;;;5007409;28;20648;-69
2022/08/27 11:16:32;;;;;;;42.95;30.83;;;;;;;;;;5021540;28;20057;-68
2022/08/27 11:19:03;;;;;;;38.78;31.02;;;;;;;;;;5012124;28;20077;-67
2022/08/27 11:21:51;;;;;;;41.60;32.90;;;;;;;;;;5016727;28;20502;-68
2022/08/27 11:24:30;;;;;;;45.25;33.58;;;;;;;;;;5021005;28;20050;-69
2022/08/27 11:27:04;;;;;;;39.65;32.97;;;;;;;;;;5002139;28;21248;-69
2022/08/27 11:29:41;;;;;;;41.40;32.75;;;;;;;;;;4999857;28;20061;-68
2022/08/27 11:32:25;;;;;;;46.90;35.70;;;;;;;;;;5016645;28;20053;-70
2022/08/27 11:34:56;;;;;;;48.40;36.65;;;;;;;;;;5018218;28;20053;-70
2022/08/27 11:37:29;;;;;;;45.20;35.22;;;;;;;;;;5002557;28;20050;-71
2022/08/27 11:40:05;;;;;;;;;;;;;;;;;;5029308;28;20053;-70
2022/08/27 11:42:32;;;;;;;46.58;35.90;;;;;;;;;;5021131;28;19921;-66
2022/08/27 11:45:07;;;;;;;40.78;34.10;;;;;;;;;;5018813;28;20068;-66
2022/08/27 11:47:33;;;;;;;45.67;34.22;;;;;;;;;;5021065;28;20045;-66
2022/08/27 11:50:11;;;;;;;47.30;36.05;;;;;;;;;;5020809;28;20042;-66
2022/08/27 11:52:39;;;;;;;44.10;35.20;;;;;;;;;;5008860;28;20518;-66
2022/08/27 11:55:18;;;;;;;46.53;35.47;;;;;;;;;;5011512;28;20049;-66
2022/08/27 11:57:47;;;;;;;49.40;35.53;;;;;;;;;;5019531;28;20045;-66
2022/08/27 12:00:20;;;;;;;45.35;35.08;;;;;;;;;;5016323;28;20045;-66
2022/08/27 12:02:58;;;;;;;42.28;34.20;;;;;;;;;;5017622;28;20050;-66
2022/08/27 12:05:36;;;;;;;45.65;34.70;;;;;;;;;;5023737;28;20104;-66
2022/08/27 12:08:20;;;;;;;42.75;33.92;;;;;;;;;;5020378;28;20564;-66
2022/08/27 12:11:15;;;;;;;46.47;33.83;;;;;;;;;;5018440;28;20077;-65
2022/08/27 12:13:53;;;;;;;43.13;35.55;;;;;;;;;;5011711;28;20049;-65
2022/08/27 12:16:29;;;;;;;50.80;36.55;;;;;;;;;;5015918;28;20054;-65
2022/08/27 12:19:30;;;;;;;44.00;34.20;;;;;;;;;;5021081;28;20053;-65
2022/08/27 12:22:03;;;;;;;45.25;35.33;;;;;;;;;;5019794;28;20056;-65
2022/08/27 12:24:56;;;;;;;46.13;35.65;;;;;;;;;;5018281;28;20058;-65
2022/08/27 12:27:23;;;;;;;45.80;33.75;;;;;;;;;;5022147;28;20058;-66
2022/08/27 12:29:59;;;;;;;45.38;35.80;;;;;;;;;;5019918;28;20050;-66
2022/08/27 12:32:35;;;;;;;50.80;33.95;;;;;;;;;;5021012;28;20049;-65
2022/08/27 12:35:15;;;;;;;37.72;32.80;;;;;;;;;;5022036;28;20053;-65
2022/08/27 12:37:52;;;;;;;48.88;36.53;;;;;;;;;;5020450;28;20046;-66
2022/08/27 12:40:23;;;;;;;42.28;33.30;;;;;;;;;;5016417;28;20094;-66
2022/08/27 12:43:13;;;;;;;42.55;33.83;;;;;;;;;;5018404;28;20069;-65
2022/08/27 12:45:45;;;;;;;43.03;33.65;;;;;;;;;;5023255;28;20064;-66
2022/08/27 12:48:11;;;;;;;42.10;34.10;;;;;;;;;;5020024;28;20667;-66
2022/08/27 12:50:38;;;;;;;46.47;34.25;;;;;;;;;;5003523;28;20053;-66
2022/08/27 12:53:11;;;;;;;36.65;32.25;;;;;;;;;;5024378;28;20064;-66
2022/08/27 12:55:57;;;;;;;37.10;32.50;;;;;;;;;;5020313;28;20073;-66
2022/08/27 12:58:42;;;;;;;36.60;32.22;;;;;;;;;;5029745;28;20050;-66
2022/08/27 13:01:17;;;;;;;36.05;31.42;;;;;;;;;;5020804;28;20050;-66
2022/08/27 13:03:48;;;;;;;32.08;28.42;;;;;;;;;;5014927;28;20100;-66
2022/08/27 13:06:23;;;;;;;38.90;31.88;;;;;;;;;;5014654;28;20073;-66
2022/08/27 13:08:58;;;;;;;38.50;31.42;;;;;;;;;;5014622;28;20060;-66
2022/08/27 13:11:27;;;;;;;35.58;30.27;;;;;;;;;;5014819;28;20125;-66
2022/08/27 13:14:18;;;;;;;36.05;31.98;;;;;;;;;;5014125;28;20050;-66
2022/08/27 13:16:49;;;;;;;35.78;29.05;;;;;;;;;;5014482;28;20428;-66
2022/08/27 13:19:51;;;;;;;32.75;29.13;;;;;;;;;;5015227;28;20516;-66
2022/08/27 13:22:30;;;;;;;32.33;28.10;;;;;;;;;;5014873;28;20046;-66
2022/08/27 13:24:58;;;;;;;30.83;27.58;;;;;;;;;;5017226;28;20065;-66
2022/08/27 13:27:29;;;;;;;29.65;26.27;;;;;;;;;;5001260;28;20057;-66
2022/08/27 13:29:58;;;;;;;32.80;27.88;;;;;;;;;;5018214;28;20489;-66
2022/08/27 13:32:26;;;;;;;31.73;27.20;;;;;;;;;;5017104;28;20076;-66
2022/08/27 13:34:52;;;;;;;31.75;26.75;;;;;;;;;;5017560;28;20128;-66
2022/08/27 13:37:43;;;;;;;32.53;27.83;;;;;;;;;;5019184;28;20054;-66
2022/08/27 13:40:22;;;;;;;32.35;28.88;;;;;;;;;;5018353;28;20419;-66
2022/08/27 13:42:49;;;;;;;29.65;26.50;;;;;;;;;;5015832;28;20050;-66
2022/08/27 13:45:16;;;;;;;28.52;25.55;;;;;;;;;;4999027;28;20057;-66
2022/08/27 13:47:45;;;;;;;30.88;26.33;;;;;;;;;;5016207;28;20241;-66
2022/08/27 13:50:30;;;;;;;35.00;26.65;;;;;;;;;;4998654;28;20053;-67
2022/08/27 13:55:51;;;;;;;32.78;28.08;;;;;;;;;;5014836;28;20054;-66
2022/08/27 13:58:23;;;;;;;29.98;26.20;;;;;;;;;;5015263;28;20065;-65
2022/08/27 14:00:49;;;;;;;32.30;26.77;;;;;;;;;;5014607;28;20089;-65
2022/08/27 14:03:44;;;;;;;33.05;26.67;;;;;;;;;;5014600;28;20053;-66
2022/08/27 14:06:22;;;;;;;28.60;24.42;;;;;;;;;;5012958;28;20505;-65
2022/08/27 14:08:49;;;;;;;30.85;26.70;;;;;;;;;;5012241;28;20050;-66
2022/08/27 14:11:15;;;;;;;28.67;25.67;;;;;;;;;;5021770;28;20041;-66
2022/08/27 14:13:44;;;;;;;31.58;25.73;;;;;;;;;;5015839;28;20401;-66
2022/08/27 14:16:14;;;;;;;28.52;25.38;;;;;;;;;;5033177;28;20059;-66
2022/08/27 14:18:55;;;;;;;31.17;25.65;;;;;;;;;;5033697;28;20052;-66
2022/08/27 14:21:24;;;;;;;28.30;23.08;;;;;;;;;;5033524;28;20045;-66
2022/08/27 14:23:52;;;;;;;21.77;19.27;;;;;;;;;;5033060;28;20065;-66
2022/08/27 14:26:19;;;;;;;23.35;20.90;;;;;;;;;;5033379;28;20063;-65
2022/08/27 14:28:46;;;;;;;28.23;23.38;;;;;;;;;;5033431;28;20057;-66
2022/08/27 14:31:13;;;;;;;25.00;22.27;;;;;;;;;;5032581;28;20103;-66
2022/08/27 14:33:40;;;;;;;25.00;19.90;;;;;;;;;;5033383;28;20050;-65
2022/08/27 14:36:07;;;;;;;25.20;21.00;;;;;;;;;;5032537;28;20057;-66
2022/08/27 14:38:35;;;;;;;22.73;20.30;;;;;;;;;;5031462;28;20042;-66
2022/08/27 14:41:05;;;;;;;25.55;22.10;;;;;;;;;;5031819;28;20053;-65
2022/08/27 14:43:33;;;;;;;27.98;21.80;;;;;;;;;;5033173;28;20057;-65
2022/08/27 14:46:01;;;;;;;27.13;22.65;;;;;;;;;;5033840;28;20115;-66
2022/08/27 14:48:31;;;;;;;28.98;23.15;;;;;;;;;;5016276;28;20049;-66
2022/08/27 14:51:01;;;;;;;25.55;22.85;;;;;;;;;;5032690;28;20500;-65
2022/08/27 14:53:27;;;;;;;28.67;24.63;;;;;;;;;;5015125;28;20528;-66
2022/08/27 14:55:57;;;;;;;27.48;24.58;;;;;;;;;;5013950;28;20046;-66
2022/08/27 14:58:24;;;;;;;28.80;24.90;;;;;;;;;;5014020;28;20077;-66
2022/08/27 15:00:54;;;;;;;27.65;23.88;;;;;;;;;;5013968;28;20429;-69
2022/08/27 15:03:24;;;;;;;28.73;24.38;;;;;;;;;;5028719;28;20058;-66